Mao, Dominican Republic
Current Conditions -  °F | °C
As of 1:00 PM on Tuesday 21 Oct 2014 (Local Time) from MDST Reporting Station
Scattered Clouds Scattered Clouds  
Wind Chill: 30°   Ceiling: Unl
Heat Index: 33°   Visibility: 6mi
Dew Point: 22°   Wind: 12mph
Humidity: 62%   Direction: 130°SE
Pressure: 29.91"   Gusts: NA
Location:  19.56°N, 71.08°W
Report Text: MDST 211700Z 13010KT 9999 SCT025 30/22 Q1013 NOSIG
Loading
Personal Weather Stations






























Interactive Weather Map
Tropical Storm Tracking
New forecast layout! Learn more

10-Day Weather Forecast

Advertisements
Track Severe Weather on mobile